sensor_id;sensor_type;location;lat;lon;timestamp;P1;durP1;ratioP1;P2;durP2;ratioP2
75218;SDS011;63801;49.414;19.474;2024-01-16T00:00:36;8.68;;;4.53;;
75218;SDS011;63801;49.414;19.474;2024-01-16T00:02:36;11.05;;;4.97;;
75218;SDS011;63801;49.414;19.474;2024-01-16T00:04:37;7.72;;;4.15;;
75218;SDS011;63801;49.414;19.474;2024-01-16T00:06:40;8.50;;;4.00;;
75218;SDS011;63801;49.414;19.474;2024-01-16T00:08:41;10.23;;;4.35;;
75218;SDS011;63801;49.414;19.474;2024-01-16T00:10:41;8.55;;;4.30;;
75218;SDS011;63801;49.414;19.474;2024-01-16T00:12:42;7.80;;;4.25;;
75218;SDS011;63801;49.414;19.474;2024-01-16T00:14:42;9.88;;;4.93;;
75218;SDS011;63801;49.414;19.474;2024-01-16T00:16:43;10.45;;;4.80;;
75218;SDS011;63801;49.414;19.474;2024-01-16T00:18:45;13.52;;;5.03;;
75218;SDS011;63801;49.414;19.474;2024-01-16T00:20:45;7.07;;;3.20;;
75218;SDS011;63801;49.414;19.474;2024-01-16T00:22:46;6.97;;;3.42;;
75218;SDS011;63801;49.414;19.474;2024-01-16T00:24:46;10.32;;;4.15;;
75218;SDS011;63801;49.414;19.474;2024-01-16T00:26:46;8.07;;;4.40;;
75218;SDS011;63801;49.414;19.474;2024-01-16T00:28:47;12.38;;;5.25;;
75218;SDS011;63801;49.414;19.474;2024-01-16T00:30:47;9.98;;;4.50;;
75218;SDS011;63801;49.414;19.474;2024-01-16T00:32:47;7.18;;;3.55;;
75218;SDS011;63801;49.414;19.474;2024-01-16T00:34:47;10.95;;;4.70;;
75218;SDS011;63801;49.414;19.474;2024-01-16T00:36:48;10.27;;;4.30;;
75218;SDS011;63801;49.414;19.474;2024-01-16T00:38:48;10.38;;;4.28;;
75218;SDS011;63801;49.414;19.474;2024-01-16T00:40:48;10.48;;;3.97;;
75218;SDS011;63801;49.414;19.474;2024-01-16T00:42:49;7.55;;;3.83;;
75218;SDS011;63801;49.414;19.474;2024-01-16T00:44:49;10.30;;;4.60;;
75218;SDS011;63801;49.414;19.474;2024-01-16T00:46:49;9.18;;;4.10;;
75218;SDS011;63801;49.414;19.474;2024-01-16T00:48:50;11.65;;;4.68;;
75218;SDS011;63801;49.414;19.474;2024-01-16T00:50:50;8.18;;;4.20;;
75218;SDS011;63801;49.414;19.474;2024-01-16T00:52:51;6.57;;;3.85;;
75218;SDS011;63801;49.414;19.474;2024-01-16T00:54:51;7.38;;;3.25;;
75218;SDS011;63801;49.414;19.474;2024-01-16T00:56:51;9.05;;;3.75;;
75218;SDS011;63801;49.414;19.474;2024-01-16T00:58:55;8.25;;;3.88;;
75218;SDS011;63801;49.414;19.474;2024-01-16T01:00:55;7.38;;;4.13;;
75218;SDS011;63801;49.414;19.474;2024-01-16T01:02:56;8.60;;;3.85;;
75218;SDS011;63801;49.414;19.474;2024-01-16T01:04:56;9.27;;;4.30;;
75218;SDS011;63801;49.414;19.474;2024-01-16T01:06:56;7.43;;;3.67;;
75218;SDS011;63801;49.414;19.474;2024-01-16T01:08:57;10.52;;;4.35;;
75218;SDS011;63801;49.414;19.474;2024-01-16T01:10:59;8.15;;;4.18;;
75218;SDS011;63801;49.414;19.474;2024-01-16T01:12:59;9.55;;;4.57;;
75218;SDS011;63801;49.414;19.474;2024-01-16T01:15:00;8.50;;;4.20;;
75218;SDS011;63801;49.414;19.474;2024-01-16T01:17:00;9.05;;;4.13;;
75218;SDS011;63801;49.414;19.474;2024-01-16T01:19:00;7.90;;;4.07;;
75218;SDS011;63801;49.414;19.474;2024-01-16T01:21:01;7.28;;;3.53;;
75218;SDS011;63801;49.414;19.474;2024-01-16T01:23:01;8.40;;;4.40;;
75218;SDS011;63801;49.414;19.474;2024-01-16T01:25:01;12.55;;;5.53;;
75218;SDS011;63801;49.414;19.474;2024-01-16T01:27:02;11.48;;;5.25;;
75218;SDS011;63801;49.414;19.474;2024-01-16T01:29:02;9.88;;;3.88;;
75218;SDS011;63801;49.414;19.474;2024-01-16T01:31:03;11.18;;;4.65;;
75218;SDS011;63801;49.414;19.474;2024-01-16T01:33:03;14.23;;;4.63;;
75218;SDS011;63801;49.414;19.474;2024-01-16T01:35:04;8.55;;;3.88;;
75218;SDS011;63801;49.414;19.474;2024-01-16T01:37:05;10.48;;;4.60;;
75218;SDS011;63801;49.414;19.474;2024-01-16T01:39:05;12.90;;;5.18;;
75218;SDS011;63801;49.414;19.474;2024-01-16T01:41:05;8.18;;;3.83;;
75218;SDS011;63801;49.414;19.474;2024-01-16T01:43:24;9.30;;;3.85;;
75218;SDS011;63801;49.414;19.474;2024-01-16T01:45:25;11.55;;;4.78;;
75218;SDS011;63801;49.414;19.474;2024-01-16T01:47:26;10.73;;;5.13;;
75218;SDS011;63801;49.414;19.474;2024-01-16T01:49:26;9.25;;;4.10;;
75218;SDS011;63801;49.414;19.474;2024-01-16T01:51:27;7.57;;;3.90;;
75218;SDS011;63801;49.414;19.474;2024-01-16T01:53:28;9.18;;;4.05;;
75218;SDS011;63801;49.414;19.474;2024-01-16T01:55:31;7.10;;;3.72;;
75218;SDS011;63801;49.414;19.474;2024-01-16T01:57:32;7.50;;;3.70;;
75218;SDS011;63801;49.414;19.474;2024-01-16T01:59:33;7.88;;;4.28;;
75218;SDS011;63801;49.414;19.474;2024-01-16T02:01:34;8.32;;;4.00;;
75218;SDS011;63801;49.414;19.474;2024-01-16T02:03:41;7.30;;;3.45;;
75218;SDS011;63801;49.414;19.474;2024-01-16T02:05:43;8.15;;;3.65;;
75218;SDS011;63801;49.414;19.474;2024-01-16T02:07:45;8.35;;;4.65;;
75218;SDS011;63801;49.414;19.474;2024-01-16T02:09:46;9.32;;;4.32;;
75218;SDS011;63801;49.414;19.474;2024-01-16T02:11:47;7.63;;;4.05;;
75218;SDS011;63801;49.414;19.474;2024-01-16T02:13:47;8.73;;;4.22;;
75218;SDS011;63801;49.414;19.474;2024-01-16T02:15:47;7.38;;;3.42;;
75218;SDS011;63801;49.414;19.474;2024-01-16T02:17:48;10.23;;;3.83;;
75218;SDS011;63801;49.414;19.474;2024-01-16T02:19:48;9.02;;;4.40;;
75218;SDS011;63801;49.414;19.474;2024-01-16T02:21:49;9.70;;;4.10;;
75218;SDS011;63801;49.414;19.474;2024-01-16T02:23:51;11.98;;;5.35;;
75218;SDS011;63801;49.414;19.474;2024-01-16T02:25:51;6.78;;;3.55;;
75218;SDS011;63801;49.414;19.474;2024-01-16T02:27:52;8.93;;;4.22;;
75218;SDS011;63801;49.414;19.474;2024-01-16T02:29:53;8.57;;;3.67;;
75218;SDS011;63801;49.414;19.474;2024-01-16T02:31:53;8.30;;;3.63;;
75218;SDS011;63801;49.414;19.474;2024-01-16T02:33:53;7.10;;;3.40;;
75218;SDS011;63801;49.414;19.474;2024-01-16T02:35:53;8.52;;;3.63;;
75218;SDS011;63801;49.414;19.474;2024-01-16T02:37:54;8.77;;;3.85;;
75218;SDS011;63801;49.414;19.474;2024-01-16T02:39:54;10.25;;;4.38;;
75218;SDS011;63801;49.414;19.474;2024-01-16T02:41:55;9.88;;;4.03;;
75218;SDS011;63801;49.414;19.474;2024-01-16T02:43:55;7.00;;;3.70;;
75218;SDS011;63801;49.414;19.474;2024-01-16T02:45:55;9.23;;;3.67;;
75218;SDS011;63801;49.414;19.474;2024-01-16T02:47:56;7.65;;;4.07;;
75218;SDS011;63801;49.414;19.474;2024-01-16T02:49:56;8.73;;;4.10;;
75218;SDS011;63801;49.414;19.474;2024-01-16T02:51:57;7.70;;;4.10;;
75218;SDS011;63801;49.414;19.474;2024-01-16T02:53:57;9.55;;;3.90;;
75218;SDS011;63801;49.414;19.474;2024-01-16T02:55:57;8.80;;;3.58;;
75218;SDS011;63801;49.414;19.474;2024-01-16T02:58:00;9.02;;;3.97;;
75218;SDS011;63801;49.414;19.474;2024-01-16T03:00:03;8.27;;;3.90;;
75218;SDS011;63801;49.414;19.474;2024-01-16T03:02:04;9.45;;;4.43;;
75218;SDS011;63801;49.414;19.474;2024-01-16T03:04:04;10.18;;;4.75;;
75218;SDS011;63801;49.414;19.474;2024-01-16T03:06:05;8.57;;;4.10;;
75218;SDS011;63801;49.414;19.474;2024-01-16T03:08:05;9.95;;;4.68;;
75218;SDS011;63801;49.414;19.474;2024-01-16T03:10:06;15.77;;;4.70;;
75218;SDS011;63801;49.414;19.474;2024-01-16T03:12:07;10.60;;;4.07;;
75218;SDS011;63801;49.414;19.474;2024-01-16T03:14:07;11.43;;;5.97;;
75218;SDS011;63801;49.414;19.474;2024-01-16T03:16:08;8.52;;;4.20;;
75218;SDS011;63801;49.414;19.474;2024-01-16T03:18:10;10.25;;;4.30;;
75218;SDS011;63801;49.414;19.474;2024-01-16T03:20:11;10.60;;;4.28;;
75218;SDS011;63801;49.414;19.474;2024-01-16T03:22:12;9.35;;;4.45;;
75218;SDS011;63801;49.414;19.474;2024-01-16T03:24:12;10.18;;;3.80;;
75218;SDS011;63801;49.414;19.474;2024-01-16T03:26:13;8.77;;;3.78;;
75218;SDS011;63801;49.414;19.474;2024-01-16T03:28:14;9.77;;;4.32;;
75218;SDS011;63801;49.414;19.474;2024-01-16T03:30:14;9.52;;;4.43;;
75218;SDS011;63801;49.414;19.474;2024-01-16T03:32:14;10.55;;;5.18;;
75218;SDS011;63801;49.414;19.474;2024-01-16T03:34:14;9.55;;;4.10;;
75218;SDS011;63801;49.414;19.474;2024-01-16T03:36:15;9.43;;;4.50;;
75218;SDS011;63801;49.414;19.474;2024-01-16T03:38:15;7.50;;;3.28;;
75218;SDS011;63801;49.414;19.474;2024-01-16T03:40:16;6.95;;;3.58;;
75218;SDS011;63801;49.414;19.474;2024-01-16T03:42:16;10.43;;;4.97;;
75218;SDS011;63801;49.414;19.474;2024-01-16T03:44:16;7.90;;;3.60;;
75218;SDS011;63801;49.414;19.474;2024-01-16T03:46:17;7.28;;;3.15;;
75218;SDS011;63801;49.414;19.474;2024-01-16T03:48:17;8.15;;;3.45;;
75218;SDS011;63801;49.414;19.474;2024-01-16T03:50:17;7.68;;;3.88;;
75218;SDS011;63801;49.414;19.474;2024-01-16T03:52:18;7.75;;;3.42;;
75218;SDS011;63801;49.414;19.474;2024-01-16T03:54:18;6.65;;;3.30;;
75218;SDS011;63801;49.414;19.474;2024-01-16T03:56:18;7.30;;;3.70;;
75218;SDS011;63801;49.414;19.474;2024-01-16T03:58:19;11.18;;;3.55;;
75218;SDS011;63801;49.414;19.474;2024-01-16T04:00:19;5.88;;;2.97;;
75218;SDS011;63801;49.414;19.474;2024-01-16T04:02:19;6.97;;;3.58;;
75218;SDS011;63801;49.414;19.474;2024-01-16T04:04:20;8.20;;;5.22;;
75218;SDS011;63801;49.414;19.474;2024-01-16T04:06:20;8.55;;;3.80;;
75218;SDS011;63801;49.414;19.474;2024-01-16T04:08:20;6.40;;;3.45;;
75218;SDS011;63801;49.414;19.474;2024-01-16T04:10:21;8.70;;;3.20;;
75218;SDS011;63801;49.414;19.474;2024-01-16T04:12:21;12.60;;;4.10;;
75218;SDS011;63801;49.414;19.474;2024-01-16T04:14:22;8.40;;;3.58;;
75218;SDS011;63801;49.414;19.474;2024-01-16T04:16:22;8.25;;;3.22;;
75218;SDS011;63801;49.414;19.474;2024-01-16T04:18:22;11.43;;;4.40;;
75218;SDS011;63801;49.414;19.474;2024-01-16T04:20:23;9.15;;;4.40;;
75218;SDS011;63801;49.414;19.474;2024-01-16T04:22:24;8.13;;;4.10;;
75218;SDS011;63801;49.414;19.474;2024-01-16T04:24:24;10.73;;;4.85;;
75218;SDS011;63801;49.414;19.474;2024-01-16T04:26:24;11.15;;;5.32;;
75218;SDS011;63801;49.414;19.474;2024-01-16T04:28:25;7.22;;;3.58;;
75218;SDS011;63801;49.414;19.474;2024-01-16T04:30:26;12.20;;;4.28;;
75218;SDS011;63801;49.414;19.474;2024-01-16T04:32:26;7.25;;;3.65;;
75218;SDS011;63801;49.414;19.474;2024-01-16T04:34:26;6.10;;;2.67;;
75218;SDS011;63801;49.414;19.474;2024-01-16T04:36:26;11.13;;;4.13;;
75218;SDS011;63801;49.414;19.474;2024-01-16T04:38:27;8.88;;;4.15;;
75218;SDS011;63801;49.414;19.474;2024-01-16T04:40:27;7.68;;;3.15;;
75218;SDS011;63801;49.414;19.474;2024-01-16T04:42:27;10.68;;;4.18;;
75218;SDS011;63801;49.414;19.474;2024-01-16T04:44:28;9.77;;;4.55;;
75218;SDS011;63801;49.414;19.474;2024-01-16T04:46:29;9.88;;;3.78;;
75218;SDS011;63801;49.414;19.474;2024-01-16T04:48:29;15.27;;;6.00;;
75218;SDS011;63801;49.414;19.474;2024-01-16T04:50:29;18.63;;;5.43;;
75218;SDS011;63801;49.414;19.474;2024-01-16T04:52:32;10.15;;;4.53;;
75218;SDS011;63801;49.414;19.474;2024-01-16T04:54:33;12.63;;;4.93;;
75218;SDS011;63801;49.414;19.474;2024-01-16T04:56:33;10.57;;;4.35;;
75218;SDS011;63801;49.414;19.474;2024-01-16T04:58:34;8.25;;;4.13;;
75218;SDS011;63801;49.414;19.474;2024-01-16T05:00:34;11.88;;;5.18;;
75218;SDS011;63801;49.414;19.474;2024-01-16T05:02:34;19.42;;;7.75;;
75218;SDS011;63801;49.414;19.474;2024-01-16T05:04:36;15.32;;;6.53;;
75218;SDS011;63801;49.414;19.474;2024-01-16T05:06:38;19.60;;;8.13;;
75218;SDS011;63801;49.414;19.474;2024-01-16T05:08:39;14.40;;;5.95;;
75218;SDS011;63801;49.414;19.474;2024-01-16T05:10:39;10.38;;;5.03;;
75218;SDS011;63801;49.414;19.474;2024-01-16T05:12:40;9.00;;;4.30;;
75218;SDS011;63801;49.414;19.474;2024-01-16T05:14:41;12.10;;;5.55;;
75218;SDS011;63801;49.414;19.474;2024-01-16T05:16:41;11.52;;;6.10;;
75218;SDS011;63801;49.414;19.474;2024-01-16T05:18:42;17.42;;;7.85;;
75218;SDS011;63801;49.414;19.474;2024-01-16T05:20:43;14.50;;;6.00;;
75218;SDS011;63801;49.414;19.474;2024-01-16T05:22:43;7.32;;;3.97;;
75218;SDS011;63801;49.414;19.474;2024-01-16T05:24:43;8.32;;;3.58;;
75218;SDS011;63801;49.414;19.474;2024-01-16T05:26:44;6.90;;;2.85;;
75218;SDS011;63801;49.414;19.474;2024-01-16T05:28:44;5.85;;;2.55;;
75218;SDS011;63801;49.414;19.474;2024-01-16T05:30:45;7.25;;;1.83;;
75218;SDS011;63801;49.414;19.474;2024-01-16T05:32:45;5.07;;;2.25;;
75218;SDS011;63801;49.414;19.474;2024-01-16T05:34:46;5.80;;;2.72;;
75218;SDS011;63801;49.414;19.474;2024-01-16T05:36:46;4.75;;;2.38;;
75218;SDS011;63801;49.414;19.474;2024-01-16T05:38:46;14.63;;;6.78;;
75218;SDS011;63801;49.414;19.474;2024-01-16T05:40:47;7.22;;;3.58;;
75218;SDS011;63801;49.414;19.474;2024-01-16T05:42:50;13.82;;;4.82;;
75218;SDS011;63801;49.414;19.474;2024-01-16T05:44:51;7.82;;;3.20;;
75218;SDS011;63801;49.414;19.474;2024-01-16T05:46:53;5.18;;;2.70;;
75218;SDS011;63801;49.414;19.474;2024-01-16T05:48:53;5.43;;;2.50;;
75218;SDS011;63801;49.414;19.474;2024-01-16T05:50:54;7.22;;;2.40;;
75218;SDS011;63801;49.414;19.474;2024-01-16T05:52:54;7.60;;;3.15;;
75218;SDS011;63801;49.414;19.474;2024-01-16T05:54:54;19.00;;;10.13;;
75218;SDS011;63801;49.414;19.474;2024-01-16T05:56:57;12.43;;;5.15;;
75218;SDS011;63801;49.414;19.474;2024-01-16T05:58:57;14.75;;;6.88;;
75218;SDS011;63801;49.414;19.474;2024-01-16T06:00:58;26.20;;;8.88;;
75218;SDS011;63801;49.414;19.474;2024-01-16T06:02:58;30.75;;;10.60;;
75218;SDS011;63801;49.414;19.474;2024-01-16T06:04:58;24.00;;;9.52;;
75218;SDS011;63801;49.414;19.474;2024-01-16T06:06:59;12.27;;;5.13;;
75218;SDS011;63801;49.414;19.474;2024-01-16T06:08:59;12.43;;;6.55;;
75218;SDS011;63801;49.414;19.474;2024-01-16T06:11:05;22.25;;;9.80;;
75218;SDS011;63801;49.414;19.474;2024-01-16T06:13:05;22.85;;;9.57;;
75218;SDS011;63801;49.414;19.474;2024-01-16T06:15:06;22.02;;;9.45;;
75218;SDS011;63801;49.414;19.474;2024-01-16T06:17:06;35.90;;;14.00;;
75218;SDS011;63801;49.414;19.474;2024-01-16T06:19:07;18.92;;;7.53;;
75218;SDS011;63801;49.414;19.474;2024-01-16T06:21:08;14.75;;;7.43;;
75218;SDS011;63801;49.414;19.474;2024-01-16T06:23:11;19.80;;;8.38;;
75218;SDS011;63801;49.414;19.474;2024-01-16T06:25:11;17.85;;;7.78;;
75218;SDS011;63801;49.414;19.474;2024-01-16T06:27:11;19.63;;;9.43;;
75218;SDS011;63801;49.414;19.474;2024-01-16T06:29:18;30.83;;;9.27;;
75218;SDS011;63801;49.414;19.474;2024-01-16T06:31:19;16.50;;;7.57;;
75218;SDS011;63801;49.414;19.474;2024-01-16T06:33:19;17.35;;;6.70;;
75218;SDS011;63801;49.414;19.474;2024-01-16T06:35:19;15.73;;;8.07;;
75218;SDS011;63801;49.414;19.474;2024-01-16T06:37:20;22.17;;;9.45;;
75218;SDS011;63801;49.414;19.474;2024-01-16T06:39:20;17.90;;;7.38;;
75218;SDS011;63801;49.414;19.474;2024-01-16T06:41:20;17.00;;;6.85;;
75218;SDS011;63801;49.414;19.474;2024-01-16T06:43:21;12.43;;;4.97;;
75218;SDS011;63801;49.414;19.474;2024-01-16T06:45:21;9.65;;;4.55;;
75218;SDS011;63801;49.414;19.474;2024-01-16T06:47:21;11.85;;;5.25;;
75218;SDS011;63801;49.414;19.474;2024-01-16T06:49:23;11.88;;;4.85;;
75218;SDS011;63801;49.414;19.474;2024-01-16T06:51:24;5.82;;;3.13;;
75218;SDS011;63801;49.414;19.474;2024-01-16T06:53:24;11.00;;;4.18;;
75218;SDS011;63801;49.414;19.474;2024-01-16T06:55:25;12.38;;;3.95;;
75218;SDS011;63801;49.414;19.474;2024-01-16T06:57:25;12.38;;;4.57;;
75218;SDS011;63801;49.414;19.474;2024-01-16T06:59:27;10.52;;;4.57;;
75218;SDS011;63801;49.414;19.474;2024-01-16T07:01:27;11.40;;;4.05;;
75218;SDS011;63801;49.414;19.474;2024-01-16T07:03:28;13.48;;;3.90;;
75218;SDS011;63801;49.414;19.474;2024-01-16T07:05:28;9.20;;;3.33;;
75218;SDS011;63801;49.414;19.474;2024-01-16T07:07:29;9.98;;;3.95;;
75218;SDS011;63801;49.414;19.474;2024-01-16T07:09:30;8.35;;;3.28;;
75218;SDS011;63801;49.414;19.474;2024-01-16T07:11:30;6.15;;;2.63;;
75218;SDS011;63801;49.414;19.474;2024-01-16T07:13:31;10.95;;;3.70;;
75218;SDS011;63801;49.414;19.474;2024-01-16T07:15:31;9.63;;;3.72;;
75218;SDS011;63801;49.414;19.474;2024-01-16T07:17:31;11.27;;;4.38;;
75218;SDS011;63801;49.414;19.474;2024-01-16T07:19:32;6.43;;;3.20;;
75218;SDS011;63801;49.414;19.474;2024-01-16T07:21:32;9.18;;;3.40;;
75218;SDS011;63801;49.414;19.474;2024-01-16T07:23:33;19.80;;;6.93;;
75218;SDS011;63801;49.414;19.474;2024-01-16T07:25:34;18.35;;;6.80;;
75218;SDS011;63801;49.414;19.474;2024-01-16T07:27:34;18.48;;;6.18;;
75218;SDS011;63801;49.414;19.474;2024-01-16T07:29:35;22.58;;;7.07;;
75218;SDS011;63801;49.414;19.474;2024-01-16T07:31:35;22.88;;;7.65;;
75218;SDS011;63801;49.414;19.474;2024-01-16T07:33:35;23.65;;;7.80;;
75218;SDS011;63801;49.414;19.474;2024-01-16T07:35:36;22.05;;;7.57;;
75218;SDS011;63801;49.414;19.474;2024-01-16T07:37:37;24.92;;;7.00;;
75218;SDS011;63801;49.414;19.474;2024-01-16T07:39:38;17.55;;;6.20;;
75218;SDS011;63801;49.414;19.474;2024-01-16T07:41:38;11.82;;;4.88;;
75218;SDS011;63801;49.414;19.474;2024-01-16T07:43:39;10.48;;;5.18;;
75218;SDS011;63801;49.414;19.474;2024-01-16T07:45:39;13.90;;;5.47;;
75218;SDS011;63801;49.414;19.474;2024-01-16T07:47:40;12.20;;;5.25;;
75218;SDS011;63801;49.414;19.474;2024-01-16T07:49:41;20.05;;;6.32;;
75218;SDS011;63801;49.414;19.474;2024-01-16T07:51:42;14.90;;;6.43;;
75218;SDS011;63801;49.414;19.474;2024-01-16T07:53:42;19.08;;;6.95;;
75218;SDS011;63801;49.414;19.474;2024-01-16T07:55:43;14.05;;;4.60;;
75218;SDS011;63801;49.414;19.474;2024-01-16T07:57:43;23.45;;;7.75;;
75218;SDS011;63801;49.414;19.474;2024-01-16T07:59:44;9.68;;;4.07;;
75218;SDS011;63801;49.414;19.474;2024-01-16T08:01:44;8.30;;;3.40;;
75218;SDS011;63801;49.414;19.474;2024-01-16T08:03:45;16.50;;;5.88;;
75218;SDS011;63801;49.414;19.474;2024-01-16T08:05:45;17.20;;;6.82;;
75218;SDS011;63801;49.414;19.474;2024-01-16T08:07:45;14.73;;;6.07;;
75218;SDS011;63801;49.414;19.474;2024-01-16T08:09:46;16.58;;;5.95;;
75218;SDS011;63801;49.414;19.474;2024-01-16T08:11:46;8.95;;;3.22;;
75218;SDS011;63801;49.414;19.474;2024-01-16T08:13:47;7.40;;;3.47;;
75218;SDS011;63801;49.414;19.474;2024-01-16T08:15:47;9.65;;;4.50;;
75218;SDS011;63801;49.414;19.474;2024-01-16T08:17:47;10.75;;;4.35;;
75218;SDS011;63801;49.414;19.474;2024-01-16T08:19:48;29.13;;;10.25;;
75218;SDS011;63801;49.414;19.474;2024-01-16T08:21:48;6.68;;;2.80;;
75218;SDS011;63801;49.414;19.474;2024-01-16T08:23:48;3.95;;;2.40;;
75218;SDS011;63801;49.414;19.474;2024-01-16T08:25:49;30.27;;;13.45;;
75218;SDS011;63801;49.414;19.474;2024-01-16T08:27:51;8.73;;;4.00;;
75218;SDS011;63801;49.414;19.474;2024-01-16T08:29:51;12.18;;;3.63;;
75218;SDS011;63801;49.414;19.474;2024-01-16T08:31:52;7.78;;;3.40;;
75218;SDS011;63801;49.414;19.474;2024-01-16T08:33:52;8.77;;;3.22;;
75218;SDS011;63801;49.414;19.474;2024-01-16T08:35:56;5.03;;;2.45;;
75218;SDS011;63801;49.414;19.474;2024-01-16T08:37:56;6.45;;;2.53;;
75218;SDS011;63801;49.414;19.474;2024-01-16T08:39:56;5.95;;;2.72;;
75218;SDS011;63801;49.414;19.474;2024-01-16T08:41:56;5.93;;;2.83;;
75218;SDS011;63801;49.414;19.474;2024-01-16T08:43:57;9.02;;;3.45;;
75218;SDS011;63801;49.414;19.474;2024-01-16T08:45:58;7.03;;;3.05;;
75218;SDS011;63801;49.414;19.474;2024-01-16T08:47:58;9.40;;;3.35;;
75218;SDS011;63801;49.414;19.474;2024-01-16T08:49:59;10.30;;;3.22;;
75218;SDS011;63801;49.414;19.474;2024-01-16T08:52:00;15.27;;;5.68;;
75218;SDS011;63801;49.414;19.474;2024-01-16T08:54:00;32.72;;;10.88;;
75218;SDS011;63801;49.414;19.474;2024-01-16T08:56:00;23.55;;;7.65;;
75218;SDS011;63801;49.414;19.474;2024-01-16T08:58:02;15.70;;;6.35;;
75218;SDS011;63801;49.414;19.474;2024-01-16T09:00:06;12.50;;;5.70;;
75218;SDS011;63801;49.414;19.474;2024-01-16T09:02:08;10.85;;;4.18;;
75218;SDS011;63801;49.414;19.474;2024-01-16T09:04:09;7.95;;;3.10;;
75218;SDS011;63801;49.414;19.474;2024-01-16T09:06:09;3.88;;;2.00;;
75218;SDS011;63801;49.414;19.474;2024-01-16T09:08:10;4.35;;;1.45;;
75218;SDS011;63801;49.414;19.474;2024-01-16T09:10:11;3.38;;;1.70;;
75218;SDS011;63801;49.414;19.474;2024-01-16T09:12:12;4.07;;;1.55;;
75218;SDS011;63801;49.414;19.474;2024-01-16T09:14:12;4.70;;;1.73;;
75218;SDS011;63801;49.414;19.474;2024-01-16T09:16:12;2.88;;;1.42;;
75218;SDS011;63801;49.414;19.474;2024-01-16T09:18:13;4.32;;;1.63;;
75218;SDS011;63801;49.414;19.474;2024-01-16T09:20:13;5.68;;;2.60;;
75218;SDS011;63801;49.414;19.474;2024-01-16T09:22:13;3.97;;;2.00;;
75218;SDS011;63801;49.414;19.474;2024-01-16T09:24:16;4.68;;;2.35;;
75218;SDS011;63801;49.414;19.474;2024-01-16T09:26:16;3.88;;;1.95;;
75218;SDS011;63801;49.414;19.474;2024-01-16T09:28:17;3.83;;;1.50;;
75218;SDS011;63801;49.414;19.474;2024-01-16T09:30:18;3.90;;;1.48;;
75218;SDS011;63801;49.414;19.474;2024-01-16T09:32:19;7.05;;;1.98;;
75218;SDS011;63801;49.414;19.474;2024-01-16T09:34:19;4.95;;;1.80;;
75218;SDS011;63801;49.414;19.474;2024-01-16T09:36:19;4.20;;;2.30;;
75218;SDS011;63801;49.414;19.474;2024-01-16T09:38:20;3.13;;;1.60;;
75218;SDS011;63801;49.414;19.474;2024-01-16T09:40:20;2.60;;;1.70;;
75218;SDS011;63801;49.414;19.474;2024-01-16T09:42:21;3.28;;;1.80;;
75218;SDS011;63801;49.414;19.474;2024-01-16T09:44:21;5.63;;;1.88;;
75218;SDS011;63801;49.414;19.474;2024-01-16T09:46:22;4.05;;;1.90;;
75218;SDS011;63801;49.414;19.474;2024-01-16T09:48:23;4.80;;;2.60;;
75218;SDS011;63801;49.414;19.474;2024-01-16T09:50:25;4.63;;;2.30;;
75218;SDS011;63801;49.414;19.474;2024-01-16T09:52:25;4.60;;;2.80;;
75218;SDS011;63801;49.414;19.474;2024-01-16T09:54:26;4.32;;;1.63;;
75218;SDS011;63801;49.414;19.474;2024-01-16T09:56:27;5.75;;;2.70;;
75218;SDS011;63801;49.414;19.474;2024-01-16T09:58:30;3.35;;;1.50;;
75218;SDS011;63801;49.414;19.474;2024-01-16T10:00:34;4.38;;;1.65;;
75218;SDS011;63801;49.414;19.474;2024-01-16T10:02:35;3.03;;;1.55;;
75218;SDS011;63801;49.414;19.474;2024-01-16T10:04:36;2.67;;;1.60;;
75218;SDS011;63801;49.414;19.474;2024-01-16T10:06:37;3.63;;;1.48;;
75218;SDS011;63801;49.414;19.474;2024-01-16T10:08:38;3.80;;;1.67;;
75218;SDS011;63801;49.414;19.474;2024-01-16T10:10:39;3.58;;;1.40;;
75218;SDS011;63801;49.414;19.474;2024-01-16T10:12:40;2.63;;;1.50;;
75218;SDS011;63801;49.414;19.474;2024-01-16T10:14:40;3.58;;;1.60;;
75218;SDS011;63801;49.414;19.474;2024-01-16T10:19:07;4.63;;;1.65;;
75218;SDS011;63801;49.414;19.474;2024-01-16T10:21:19;4.03;;;1.60;;
75218;SDS011;63801;49.414;19.474;2024-01-16T10:23:29;3.67;;;1.50;;
75218;SDS011;63801;49.414;19.474;2024-01-16T10:25:32;3.35;;;1.48;;
75218;SDS011;63801;49.414;19.474;2024-01-16T10:27:38;3.30;;;2.13;;
75218;SDS011;63801;49.414;19.474;2024-01-16T10:29:45;1.73;;;1.10;;
75218;SDS011;63801;49.414;19.474;2024-01-16T10:31:55;3.42;;;1.40;;
75218;SDS011;63801;49.414;19.474;2024-01-16T10:33:55;2.05;;;1.33;;
75218;SDS011;63801;49.414;19.474;2024-01-16T10:36:14;2.28;;;1.50;;
75218;SDS011;63801;49.414;19.474;2024-01-16T10:38:20;2.08;;;1.45;;
75218;SDS011;63801;49.414;19.474;2024-01-16T10:40:25;1.85;;;1.27;;
75218;SDS011;63801;49.414;19.474;2024-01-16T10:42:25;3.83;;;1.20;;
75218;SDS011;63801;49.414;19.474;2024-01-16T10:44:26;2.05;;;1.20;;
75218;SDS011;63801;49.414;19.474;2024-01-16T10:46:27;2.20;;;1.45;;
75218;SDS011;63801;49.414;19.474;2024-01-16T10:48:27;2.20;;;1.40;;
75218;SDS011;63801;49.414;19.474;2024-01-16T10:50:28;3.38;;;1.40;;
75218;SDS011;63801;49.414;19.474;2024-01-16T10:52:28;3.08;;;1.85;;
75218;SDS011;63801;49.414;19.474;2024-01-16T10:54:33;3.22;;;1.73;;
75218;SDS011;63801;49.414;19.474;2024-01-16T10:56:37;3.70;;;1.85;;
75218;SDS011;63801;49.414;19.474;2024-01-16T10:58:41;13.23;;;7.07;;
75218;SDS011;63801;49.414;19.474;2024-01-16T11:00:42;7.75;;;2.90;;
75218;SDS011;63801;49.414;19.474;2024-01-16T11:05:11;4.88;;;1.80;;
75218;SDS011;63801;49.414;19.474;2024-01-16T11:07:13;4.18;;;1.77;;
75218;SDS011;63801;49.414;19.474;2024-01-16T11:09:14;3.85;;;1.80;;
75218;SDS011;63801;49.414;19.474;2024-01-16T11:11:15;5.00;;;2.08;;
75218;SDS011;63801;49.414;19.474;2024-01-16T11:13:16;4.53;;;1.90;;
75218;SDS011;63801;49.414;19.474;2024-01-16T11:15:18;4.03;;;2.00;;
75218;SDS011;63801;49.414;19.474;2024-01-16T11:17:19;4.25;;;1.92;;
75218;SDS011;63801;49.414;19.474;2024-01-16T11:19:20;4.45;;;2.10;;
75218;SDS011;63801;49.414;19.474;2024-01-16T11:21:21;4.28;;;1.90;;
75218;SDS011;63801;49.414;19.474;2024-01-16T11:23:22;3.33;;;1.70;;
75218;SDS011;63801;49.414;19.474;2024-01-16T11:25:24;3.17;;;2.00;;
75218;SDS011;63801;49.414;19.474;2024-01-16T11:27:31;4.75;;;2.40;;
75218;SDS011;63801;49.414;19.474;2024-01-16T11:31:32;6.20;;;2.13;;
75218;SDS011;63801;49.414;19.474;2024-01-16T11:35:34;5.60;;;2.60;;
75218;SDS011;63801;49.414;19.474;2024-01-16T11:37:41;5.50;;;2.45;;
75218;SDS011;63801;49.414;19.474;2024-01-16T11:39:43;4.93;;;2.45;;
75218;SDS011;63801;49.414;19.474;2024-01-16T11:41:50;5.35;;;2.00;;
75218;SDS011;63801;49.414;19.474;2024-01-16T11:44:02;5.65;;;2.03;;
75218;SDS011;63801;49.414;19.474;2024-01-16T11:46:06;7.82;;;3.03;;
75218;SDS011;63801;49.414;19.474;2024-01-16T11:48:08;6.65;;;3.22;;
75218;SDS011;63801;49.414;19.474;2024-01-16T11:50:27;4.47;;;2.25;;
75218;SDS011;63801;49.414;19.474;2024-01-16T11:52:38;5.78;;;2.95;;
75218;SDS011;63801;49.414;19.474;2024-01-16T11:54:43;7.43;;;4.07;;
75218;SDS011;63801;49.414;19.474;2024-01-16T12:01:12;7.57;;;3.33;;
75218;SDS011;63801;49.414;19.474;2024-01-16T12:03:13;7.05;;;3.53;;
75218;SDS011;63801;49.414;19.474;2024-01-16T12:05:16;8.10;;;3.33;;
75218;SDS011;63801;49.414;19.474;2024-01-16T12:07:16;26.08;;;7.50;;